sensor_id;sensor_type;location;lat;lon;timestamp;pressure;altitude;pressure_sealevel;temperature;humidity
60874;BME280;46715;40.642;-7.920;2023-08-01T00:00:18;96685.38;;;18.04;100.00
60874;BME280;46715;40.642;-7.920;2023-08-01T00:02:20;96687.25;;;18.03;100.00
60874;BME280;46715;40.642;-7.920;2023-08-01T00:04:21;96684.09;;;18.01;100.00
60874;BME280;46715;40.642;-7.920;2023-08-01T00:06:21;96681.63;;;17.96;100.00
60874;BME280;46715;40.642;-7.920;2023-08-01T00:08:22;96686.09;;;17.96;100.00
60874;BME280;46715;40.642;-7.920;2023-08-01T00:10:22;96682.50;;;17.92;100.00
60874;BME280;46715;40.642;-7.920;2023-08-01T00:12:23;96670.53;;;17.85;100.00
60874;BME280;46715;40.642;-7.920;2023-08-01T00:14:24;96675.00;;;17.85;100.00
60874;BME280;46715;40.642;-7.920;2023-08-01T00:16:25;96672.97;;;17.82;100.00
60874;BME280;46715;40.642;-7.920;2023-08-01T00:18:25;96673.16;;;17.85;100.00
60874;BME280;46715;40.642;-7.920;2023-08-01T00:20:26;96664.28;;;17.81;100.00
60874;BME280;46715;40.642;-7.920;2023-08-01T00:22:26;96669.22;;;17.74;100.00
60874;BME280;46715;40.642;-7.920;2023-08-01T00:24:27;96666.22;;;17.67;100.00
60874;BME280;46715;40.642;-7.920;2023-08-01T00:26:27;96664.19;;;17.64;100.00
60874;BME280;46715;40.642;-7.920;2023-08-01T00:28:29;96650.03;;;17.51;100.00
60874;BME280;46715;40.642;-7.920;2023-08-01T00:30:29;96658.84;;;17.46;100.00
60874;BME280;46715;40.642;-7.920;2023-08-01T00:32:30;96657.09;;;17.42;100.00
60874;BME280;46715;40.642;-7.920;2023-08-01T00:34:31;96658.13;;;17.32;100.00
60874;BME280;46715;40.642;-7.920;2023-08-01T00:36:32;96657.47;;;17.26;100.00
60874;BME280;46715;40.642;-7.920;2023-08-01T00:38:32;96666.09;;;17.18;100.00
60874;BME280;46715;40.642;-7.920;2023-08-01T00:40:33;96661.13;;;17.16;100.00
60874;BME280;46715;40.642;-7.920;2023-08-01T00:42:37;96660.53;;;17.42;100.00
60874;BME280;46715;40.642;-7.920;2023-08-01T00:44:38;96660.72;;;17.54;100.00
60874;BME280;46715;40.642;-7.920;2023-08-01T00:46:39;96649.06;;;17.47;100.00
60874;BME280;46715;40.642;-7.920;2023-08-01T00:48:39;96649.09;;;17.55;100.00
60874;BME280;46715;40.642;-7.920;2023-08-01T00:50:40;96647.03;;;17.44;100.00
60874;BME280;46715;40.642;-7.920;2023-08-01T00:52:41;96651.16;;;17.36;100.00
60874;BME280;46715;40.642;-7.920;2023-08-01T00:54:41;96649.59;;;17.35;100.00
60874;BME280;46715;40.642;-7.920;2023-08-01T00:56:42;96649.75;;;17.30;100.00
60874;BME280;46715;40.642;-7.920;2023-08-01T00:58:43;96645.06;;;17.27;100.00
60874;BME280;46715;40.642;-7.920;2023-08-01T01:00:43;96640.09;;;17.25;100.00
60874;BME280;46715;40.642;-7.920;2023-08-01T01:02:44;96635.78;;;17.29;100.00
60874;BME280;46715;40.642;-7.920;2023-08-01T01:04:44;96624.34;;;17.34;100.00
60874;BME280;46715;40.642;-7.920;2023-08-01T01:06:51;96625.59;;;17.36;100.00
60874;BME280;46715;40.642;-7.920;2023-08-01T01:08:52;96624.41;;;17.20;100.00
60874;BME280;46715;40.642;-7.920;2023-08-01T01:10:54;96627.94;;;17.15;100.00
60874;BME280;46715;40.642;-7.920;2023-08-01T01:12:55;96622.63;;;17.07;100.00
60874;BME280;46715;40.642;-7.920;2023-08-01T01:14:55;96619.03;;;17.02;100.00
60874;BME280;46715;40.642;-7.920;2023-08-01T01:16:56;96615.44;;;16.98;100.00
60874;BME280;46715;40.642;-7.920;2023-08-01T01:18:56;96615.97;;;17.09;100.00
60874;BME280;46715;40.642;-7.920;2023-08-01T01:20:57;96615.31;;;17.03;100.00
60874;BME280;46715;40.642;-7.920;2023-08-01T01:22:58;96614.16;;;16.96;100.00
60874;BME280;46715;40.642;-7.920;2023-08-01T01:24:58;96621.50;;;16.85;100.00
60874;BME280;46715;40.642;-7.920;2023-08-01T01:27:00;96621.72;;;16.75;100.00
60874;BME280;46715;40.642;-7.920;2023-08-01T01:29:04;96620.41;;;16.63;100.00
60874;BME280;46715;40.642;-7.920;2023-08-01T01:31:09;96619.06;;;16.52;100.00
60874;BME280;46715;40.642;-7.920;2023-08-01T01:33:09;96617.31;;;16.47;100.00
60874;BME280;46715;40.642;-7.920;2023-08-01T01:35:11;96621.59;;;16.43;100.00
60874;BME280;46715;40.642;-7.920;2023-08-01T01:37:11;96617.53;;;16.37;100.00
60874;BME280;46715;40.642;-7.920;2023-08-01T01:39:12;96618.91;;;16.34;100.00
60874;BME280;46715;40.642;-7.920;2023-08-01T01:41:12;96624.75;;;16.31;100.00
60874;BME280;46715;40.642;-7.920;2023-08-01T01:43:13;96613.13;;;16.32;100.00
60874;BME280;46715;40.642;-7.920;2023-08-01T01:45:13;96618.22;;;16.29;100.00
60874;BME280;46715;40.642;-7.920;2023-08-01T01:47:14;96614.13;;;16.23;100.00
60874;BME280;46715;40.642;-7.920;2023-08-01T01:49:14;96613.66;;;16.21;100.00
60874;BME280;46715;40.642;-7.920;2023-08-01T01:51:15;96617.06;;;16.21;100.00
60874;BME280;46715;40.642;-7.920;2023-08-01T01:53:15;96609.75;;;16.18;100.00
60874;BME280;46715;40.642;-7.920;2023-08-01T01:55:16;96610.53;;;16.18;100.00
60874;BME280;46715;40.642;-7.920;2023-08-01T01:57:17;96610.03;;;16.30;100.00
60874;BME280;46715;40.642;-7.920;2023-08-01T01:59:17;96608.03;;;16.50;100.00
60874;BME280;46715;40.642;-7.920;2023-08-01T02:01:18;96609.16;;;16.72;100.00
60874;BME280;46715;40.642;-7.920;2023-08-01T02:03:18;96609.97;;;16.95;100.00
60874;BME280;46715;40.642;-7.920;2023-08-01T02:05:19;96607.56;;;17.07;100.00
60874;BME280;46715;40.642;-7.920;2023-08-01T02:07:19;96608.72;;;17.15;100.00
60874;BME280;46715;40.642;-7.920;2023-08-01T02:09:20;96605.47;;;17.18;100.00
60874;BME280;46715;40.642;-7.920;2023-08-01T02:11:20;96608.22;;;17.13;100.00
60874;BME280;46715;40.642;-7.920;2023-08-01T02:13:21;96599.75;;;17.16;100.00
60874;BME280;46715;40.642;-7.920;2023-08-01T02:15:22;96592.19;;;17.23;100.00
60874;BME280;46715;40.642;-7.920;2023-08-01T02:17:22;96582.53;;;17.18;100.00
60874;BME280;46715;40.642;-7.920;2023-08-01T02:19:23;96581.94;;;17.21;100.00
60874;BME280;46715;40.642;-7.920;2023-08-01T02:21:24;96580.09;;;17.22;100.00
60874;BME280;46715;40.642;-7.920;2023-08-01T02:23:24;96568.50;;;17.32;100.00
60874;BME280;46715;40.642;-7.920;2023-08-01T02:25:25;96568.94;;;17.25;100.00
60874;BME280;46715;40.642;-7.920;2023-08-01T02:27:26;96577.25;;;17.18;100.00
60874;BME280;46715;40.642;-7.920;2023-08-01T02:29:27;96572.91;;;17.14;100.00
60874;BME280;46715;40.642;-7.920;2023-08-01T02:31:27;96568.25;;;17.11;100.00
60874;BME280;46715;40.642;-7.920;2023-08-01T02:33:28;96571.78;;;17.06;100.00
60874;BME280;46715;40.642;-7.920;2023-08-01T02:35:28;96575.63;;;17.00;100.00
60874;BME280;46715;40.642;-7.920;2023-08-01T02:37:29;96569.50;;;16.91;100.00
60874;BME280;46715;40.642;-7.920;2023-08-01T02:39:29;96570.50;;;16.81;100.00
60874;BME280;46715;40.642;-7.920;2023-08-01T02:41:30;96570.84;;;16.65;100.00
60874;BME280;46715;40.642;-7.920;2023-08-01T02:43:31;96571.09;;;16.55;100.00
60874;BME280;46715;40.642;-7.920;2023-08-01T02:45:31;96576.00;;;16.48;100.00
60874;BME280;46715;40.642;-7.920;2023-08-01T02:47:38;96571.28;;;16.45;100.00
60874;BME280;46715;40.642;-7.920;2023-08-01T02:49:39;96566.94;;;16.40;100.00
60874;BME280;46715;40.642;-7.920;2023-08-01T02:51:39;96562.06;;;16.33;100.00
60874;BME280;46715;40.642;-7.920;2023-08-01T02:53:40;96564.81;;;16.28;100.00
60874;BME280;46715;40.642;-7.920;2023-08-01T02:55:41;96564.03;;;16.28;100.00
60874;BME280;46715;40.642;-7.920;2023-08-01T02:57:42;96554.66;;;16.35;100.00
60874;BME280;46715;40.642;-7.920;2023-08-01T02:59:42;96557.31;;;16.35;100.00
60874;BME280;46715;40.642;-7.920;2023-08-01T03:01:43;96550.78;;;16.33;100.00
60874;BME280;46715;40.642;-7.920;2023-08-01T03:03:44;96563.94;;;16.33;100.00
60874;BME280;46715;40.642;-7.920;2023-08-01T03:05:44;96562.19;;;16.28;100.00
60874;BME280;46715;40.642;-7.920;2023-08-01T03:07:45;96554.09;;;16.25;100.00
60874;BME280;46715;40.642;-7.920;2023-08-01T03:09:45;96558.09;;;16.22;100.00
60874;BME280;46715;40.642;-7.920;2023-08-01T03:11:46;96557.13;;;16.18;100.00
60874;BME280;46715;40.642;-7.920;2023-08-01T03:13:46;96561.31;;;16.19;100.00
60874;BME280;46715;40.642;-7.920;2023-08-01T03:15:47;96560.72;;;16.22;100.00
60874;BME280;46715;40.642;-7.920;2023-08-01T03:17:48;96559.13;;;16.35;100.00
60874;BME280;46715;40.642;-7.920;2023-08-01T03:19:48;96556.06;;;16.56;100.00
60874;BME280;46715;40.642;-7.920;2023-08-01T03:21:49;96562.34;;;16.68;100.00
60874;BME280;46715;40.642;-7.920;2023-08-01T03:23:50;96561.22;;;16.61;100.00
60874;BME280;46715;40.642;-7.920;2023-08-01T03:25:50;96559.59;;;16.51;100.00
60874;BME280;46715;40.642;-7.920;2023-08-01T03:27:51;96561.94;;;16.52;100.00
60874;BME280;46715;40.642;-7.920;2023-08-01T03:29:51;96564.66;;;16.47;100.00
60874;BME280;46715;40.642;-7.920;2023-08-01T03:31:52;96562.34;;;16.46;100.00
60874;BME280;46715;40.642;-7.920;2023-08-01T03:33:54;96551.50;;;16.47;100.00
60874;BME280;46715;40.642;-7.920;2023-08-01T03:35:54;96560.00;;;16.44;100.00
60874;BME280;46715;40.642;-7.920;2023-08-01T03:37:55;96550.94;;;16.36;100.00
60874;BME280;46715;40.642;-7.920;2023-08-01T03:39:55;96557.03;;;16.23;100.00
60874;BME280;46715;40.642;-7.920;2023-08-01T03:41:56;96553.53;;;16.14;100.00
60874;BME280;46715;40.642;-7.920;2023-08-01T03:43:56;96548.38;;;16.09;100.00
60874;BME280;46715;40.642;-7.920;2023-08-01T03:45:57;96545.88;;;16.04;100.00
60874;BME280;46715;40.642;-7.920;2023-08-01T03:47:57;96546.25;;;15.97;100.00
60874;BME280;46715;40.642;-7.920;2023-08-01T03:49:58;96543.56;;;15.88;100.00
60874;BME280;46715;40.642;-7.920;2023-08-01T03:51:58;96545.78;;;15.81;100.00
60874;BME280;46715;40.642;-7.920;2023-08-01T03:53:59;96545.28;;;15.79;100.00
60874;BME280;46715;40.642;-7.920;2023-08-01T03:56:00;96538.53;;;15.73;100.00
60874;BME280;46715;40.642;-7.920;2023-08-01T03:58:01;96539.72;;;15.66;100.00
60874;BME280;46715;40.642;-7.920;2023-08-01T04:00:01;96537.69;;;15.63;100.00
60874;BME280;46715;40.642;-7.920;2023-08-01T04:02:12;96539.34;;;15.59;100.00
60874;BME280;46715;40.642;-7.920;2023-08-01T04:04:13;96538.06;;;15.57;100.00
60874;BME280;46715;40.642;-7.920;2023-08-01T04:06:14;96540.78;;;15.51;100.00
60874;BME280;46715;40.642;-7.920;2023-08-01T04:08:15;96541.38;;;15.48;100.00
60874;BME280;46715;40.642;-7.920;2023-08-01T04:10:16;96539.63;;;15.44;100.00
60874;BME280;46715;40.642;-7.920;2023-08-01T04:12:17;96535.72;;;15.41;100.00
60874;BME280;46715;40.642;-7.920;2023-08-01T04:14:17;96539.41;;;15.40;100.00
60874;BME280;46715;40.642;-7.920;2023-08-01T04:16:18;96535.03;;;15.36;100.00
60874;BME280;46715;40.642;-7.920;2023-08-01T04:18:18;96534.06;;;15.31;100.00
60874;BME280;46715;40.642;-7.920;2023-08-01T04:20:19;96535.91;;;15.31;100.00
60874;BME280;46715;40.642;-7.920;2023-08-01T04:22:19;96537.00;;;15.30;100.00
60874;BME280;46715;40.642;-7.920;2023-08-01T04:24:20;96534.84;;;15.32;100.00
60874;BME280;46715;40.642;-7.920;2023-08-01T04:26:20;96543.22;;;15.34;100.00
60874;BME280;46715;40.642;-7.920;2023-08-01T04:28:21;96539.22;;;15.37;100.00
60874;BME280;46715;40.642;-7.920;2023-08-01T04:30:21;96543.69;;;15.36;100.00
60874;BME280;46715;40.642;-7.920;2023-08-01T04:32:22;96544.47;;;15.37;100.00
60874;BME280;46715;40.642;-7.920;2023-08-01T04:34:22;96542.41;;;15.33;100.00
60874;BME280;46715;40.642;-7.920;2023-08-01T04:36:23;96538.81;;;15.29;100.00
60874;BME280;46715;40.642;-7.920;2023-08-01T04:38:23;96534.72;;;15.23;100.00
60874;BME280;46715;40.642;-7.920;2023-08-01T04:40:24;96532.09;;;15.23;100.00
60874;BME280;46715;40.642;-7.920;2023-08-01T04:42:25;96535.22;;;15.25;100.00
60874;BME280;46715;40.642;-7.920;2023-08-01T04:44:25;96535.72;;;15.27;100.00
60874;BME280;46715;40.642;-7.920;2023-08-01T04:46:26;96543.09;;;15.39;100.00
60874;BME280;46715;40.642;-7.920;2023-08-01T04:48:26;96541.66;;;15.47;100.00
60874;BME280;46715;40.642;-7.920;2023-08-01T04:50:27;96545.94;;;15.43;100.00
60874;BME280;46715;40.642;-7.920;2023-08-01T04:52:27;96540.59;;;15.34;100.00
60874;BME280;46715;40.642;-7.920;2023-08-01T04:54:28;96541.75;;;15.28;100.00
60874;BME280;46715;40.642;-7.920;2023-08-01T04:56:28;96543.09;;;15.25;100.00
60874;BME280;46715;40.642;-7.920;2023-08-01T04:58:29;96549.69;;;15.23;100.00
60874;BME280;46715;40.642;-7.920;2023-08-01T05:00:30;96548.63;;;15.24;100.00
60874;BME280;46715;40.642;-7.920;2023-08-01T05:02:31;96550.19;;;15.25;100.00
60874;BME280;46715;40.642;-7.920;2023-08-01T05:04:31;96551.94;;;15.29;100.00
60874;BME280;46715;40.642;-7.920;2023-08-01T05:06:32;96550.59;;;15.32;100.00
60874;BME280;46715;40.642;-7.920;2023-08-01T05:08:33;96550.81;;;15.36;100.00
60874;BME280;46715;40.642;-7.920;2023-08-01T05:10:33;96546.53;;;15.40;100.00
60874;BME280;46715;40.642;-7.920;2023-08-01T05:12:34;96546.41;;;15.45;100.00
60874;BME280;46715;40.642;-7.920;2023-08-01T05:14:34;96555.28;;;15.49;100.00
60874;BME280;46715;40.642;-7.920;2023-08-01T05:16:35;96548.38;;;15.53;100.00
60874;BME280;46715;40.642;-7.920;2023-08-01T05:18:35;96562.50;;;15.57;100.00
60874;BME280;46715;40.642;-7.920;2023-08-01T05:20:36;96558.22;;;15.61;100.00
60874;BME280;46715;40.642;-7.920;2023-08-01T05:22:36;96561.34;;;15.63;100.00
60874;BME280;46715;40.642;-7.920;2023-08-01T05:24:37;96559.97;;;15.66;100.00
60874;BME280;46715;40.642;-7.920;2023-08-01T05:26:37;96564.66;;;15.69;100.00
60874;BME280;46715;40.642;-7.920;2023-08-01T05:28:38;96561.22;;;15.68;100.00
60874;BME280;46715;40.642;-7.920;2023-08-01T05:30:38;96567.00;;;15.71;100.00
60874;BME280;46715;40.642;-7.920;2023-08-01T05:32:39;96574.56;;;15.72;100.00
60874;BME280;46715;40.642;-7.920;2023-08-01T05:34:40;96571.66;;;15.74;100.00
60874;BME280;46715;40.642;-7.920;2023-08-01T05:36:40;96577.41;;;15.76;100.00
60874;BME280;46715;40.642;-7.920;2023-08-01T05:38:41;96580.03;;;15.76;100.00
60874;BME280;46715;40.642;-7.920;2023-08-01T05:40:42;96582.38;;;15.77;100.00
60874;BME280;46715;40.642;-7.920;2023-08-01T05:42:42;96580.47;;;15.83;100.00
60874;BME280;46715;40.642;-7.920;2023-08-01T05:44:43;96578.50;;;15.89;100.00
60874;BME280;46715;40.642;-7.920;2023-08-01T05:46:43;96580.84;;;15.90;100.00
60874;BME280;46715;40.642;-7.920;2023-08-01T05:48:44;96581.81;;;15.94;100.00
60874;BME280;46715;40.642;-7.920;2023-08-01T05:50:44;96579.56;;;16.01;100.00
60874;BME280;46715;40.642;-7.920;2023-08-01T05:52:44;96587.72;;;16.14;100.00
60874;BME280;46715;40.642;-7.920;2023-08-01T05:54:45;96594.72;;;16.32;100.00
60874;BME280;46715;40.642;-7.920;2023-08-01T05:56:46;96597.47;;;16.27;100.00
60874;BME280;46715;40.642;-7.920;2023-08-01T05:58:46;96593.53;;;16.39;100.00
60874;BME280;46715;40.642;-7.920;2023-08-01T06:00:46;96604.66;;;16.35;100.00
60874;BME280;46715;40.642;-7.920;2023-08-01T06:02:47;96604.69;;;16.22;100.00
60874;BME280;46715;40.642;-7.920;2023-08-01T06:04:48;96601.56;;;16.19;100.00
60874;BME280;46715;40.642;-7.920;2023-08-01T06:06:48;96600.78;;;16.19;100.00
60874;BME280;46715;40.642;-7.920;2023-08-01T06:08:48;96601.09;;;16.17;100.00
60874;BME280;46715;40.642;-7.920;2023-08-01T06:10:49;96592.53;;;16.12;100.00
60874;BME280;46715;40.642;-7.920;2023-08-01T06:12:50;96594.28;;;16.02;100.00
60874;BME280;46715;40.642;-7.920;2023-08-01T06:14:51;96593.59;;;15.97;100.00
60874;BME280;46715;40.642;-7.920;2023-08-01T06:16:51;96594.00;;;15.90;100.00
60874;BME280;46715;40.642;-7.920;2023-08-01T06:18:52;96594.88;;;15.85;100.00
60874;BME280;46715;40.642;-7.920;2023-08-01T06:20:56;96597.97;;;15.88;100.00
60874;BME280;46715;40.642;-7.920;2023-08-01T06:22:57;96590.97;;;15.97;100.00
60874;BME280;46715;40.642;-7.920;2023-08-01T06:24:57;96584.13;;;16.10;100.00
60874;BME280;46715;40.642;-7.920;2023-08-01T06:26:58;96593.28;;;16.12;100.00
60874;BME280;46715;40.642;-7.920;2023-08-01T06:28:59;96590.63;;;16.26;100.00
60874;BME280;46715;40.642;-7.920;2023-08-01T06:30:59;96586.56;;;16.34;100.00
60874;BME280;46715;40.642;-7.920;2023-08-01T06:32:59;96584.75;;;16.43;100.00
60874;BME280;46715;40.642;-7.920;2023-08-01T06:35:00;96595.47;;;16.47;100.00
60874;BME280;46715;40.642;-7.920;2023-08-01T06:37:00;96596.34;;;16.56;100.00
60874;BME280;46715;40.642;-7.920;2023-08-01T06:39:01;96601.19;;;16.63;100.00
60874;BME280;46715;40.642;-7.920;2023-08-01T06:41:02;96600.25;;;16.81;100.00
60874;BME280;46715;40.642;-7.920;2023-08-01T06:43:03;96600.09;;;17.00;100.00
60874;BME280;46715;40.642;-7.920;2023-08-01T06:45:04;96598.06;;;17.20;100.00
60874;BME280;46715;40.642;-7.920;2023-08-01T06:47:04;96598.44;;;17.36;100.00
60874;BME280;46715;40.642;-7.920;2023-08-01T06:49:05;96598.59;;;17.62;100.00
60874;BME280;46715;40.642;-7.920;2023-08-01T06:51:05;96604.41;;;17.82;100.00
60874;BME280;46715;40.642;-7.920;2023-08-01T06:53:06;96614.75;;;18.10;100.00
60874;BME280;46715;40.642;-7.920;2023-08-01T06:55:08;96610.44;;;18.22;100.00
60874;BME280;46715;40.642;-7.920;2023-08-01T06:57:09;96610.59;;;18.26;100.00
60874;BME280;46715;40.642;-7.920;2023-08-01T06:59:09;96605.66;;;18.42;100.00
60874;BME280;46715;40.642;-7.920;2023-08-01T07:01:10;96607.84;;;18.66;100.00
60874;BME280;46715;40.642;-7.920;2023-08-01T07:03:10;96614.22;;;18.83;100.00
60874;BME280;46715;40.642;-7.920;2023-08-01T07:05:11;96618.59;;;19.05;100.00
60874;BME280;46715;40.642;-7.920;2023-08-01T07:07:11;96621.00;;;19.36;99.59
60874;BME280;46715;40.642;-7.920;2023-08-01T07:09:12;96615.31;;;19.82;96.63
60874;BME280;46715;40.642;-7.920;2023-08-01T07:11:12;96615.78;;;20.14;90.90
60874;BME280;46715;40.642;-7.920;2023-08-01T07:13:12;96609.66;;;20.22;90.28
60874;BME280;46715;40.642;-7.920;2023-08-01T07:15:13;96608.59;;;20.44;87.37
60874;BME280;46715;40.642;-7.920;2023-08-01T07:17:13;96614.78;;;20.48;85.82
60874;BME280;46715;40.642;-7.920;2023-08-01T07:19:14;96619.47;;;20.72;84.36
60874;BME280;46715;40.642;-7.920;2023-08-01T07:21:14;96611.00;;;20.79;82.39
60874;BME280;46715;40.642;-7.920;2023-08-01T07:23:15;96618.09;;;20.87;80.69
60874;BME280;46715;40.642;-7.920;2023-08-01T07:25:16;96614.59;;;20.95;78.32
60874;BME280;46715;40.642;-7.920;2023-08-01T07:27:16;96618.34;;;20.94;78.99
60874;BME280;46715;40.642;-7.920;2023-08-01T07:29:19;96617.72;;;20.98;81.48
60874;BME280;46715;40.642;-7.920;2023-08-01T07:31:21;96618.25;;;20.91;82.57
60874;BME280;46715;40.642;-7.920;2023-08-01T07:33:21;96621.06;;;21.07;81.24
60874;BME280;46715;40.642;-7.920;2023-08-01T07:35:22;96624.50;;;21.07;80.88
60874;BME280;46715;40.642;-7.920;2023-08-01T07:37:29;96623.88;;;21.23;80.15
60874;BME280;46715;40.642;-7.920;2023-08-01T07:39:29;96619.53;;;21.52;78.03
60874;BME280;46715;40.642;-7.920;2023-08-01T07:41:30;96631.97;;;21.85;77.07
60874;BME280;46715;40.642;-7.920;2023-08-01T07:43:30;96623.81;;;22.02;75.92
60874;BME280;46715;40.642;-7.920;2023-08-01T07:45:33;96618.16;;;21.91;75.03
60874;BME280;46715;40.642;-7.920;2023-08-01T07:47:33;96614.94;;;21.86;76.16
60874;BME280;46715;40.642;-7.920;2023-08-01T07:49:34;96611.41;;;21.82;74.77
60874;BME280;46715;40.642;-7.920;2023-08-01T07:51:34;96612.75;;;21.88;75.84
60874;BME280;46715;40.642;-7.920;2023-08-01T07:53:35;96622.25;;;22.01;75.34
60874;BME280;46715;40.642;-7.920;2023-08-01T07:55:36;96617.06;;;22.17;74.51
60874;BME280;46715;40.642;-7.920;2023-08-01T07:57:36;96616.59;;;22.03;74.53
60874;BME280;46715;40.642;-7.920;2023-08-01T07:59:37;96612.72;;;22.25;74.34
60874;BME280;46715;40.642;-7.920;2023-08-01T08:01:37;96611.47;;;22.47;73.71
60874;BME280;46715;40.642;-7.920;2023-08-01T08:03:40;96613.91;;;22.93;72.13
60874;BME280;46715;40.642;-7.920;2023-08-01T08:05:40;96601.50;;;23.41;70.39
60874;BME280;46715;40.642;-7.920;2023-08-01T08:07:41;96602.47;;;23.97;67.75
60874;BME280;46715;40.642;-7.920;2023-08-01T08:09:41;96605.41;;;24.27;66.48
60874;BME280;46715;40.642;-7.920;2023-08-01T08:11:42;96604.13;;;24.57;65.89
60874;BME280;46715;40.642;-7.920;2023-08-01T08:13:42;96605.94;;;24.52;64.84
60874;BME280;46715;40.642;-7.920;2023-08-01T08:15:43;96601.56;;;24.44;65.46
60874;BME280;46715;40.642;-7.920;2023-08-01T08:17:43;96601.66;;;24.48;65.71
60874;BME280;46715;40.642;-7.920;2023-08-01T08:19:44;96601.06;;;24.39;65.68
60874;BME280;46715;40.642;-7.920;2023-08-01T08:21:44;96597.75;;;24.26;65.99
60874;BME280;46715;40.642;-7.920;2023-08-01T08:23:45;96602.84;;;24.15;65.76
60874;BME280;46715;40.642;-7.920;2023-08-01T08:25:45;96602.41;;;24.29;65.36
60874;BME280;46715;40.642;-7.920;2023-08-01T08:27:50;96602.41;;;24.48;65.08
60874;BME280;46715;40.642;-7.920;2023-08-01T08:29:50;96602.16;;;25.12;63.01
60874;BME280;46715;40.642;-7.920;2023-08-01T08:31:51;96593.41;;;25.81;61.12
60874;BME280;46715;40.642;-7.920;2023-08-01T08:33:51;96597.41;;;26.48;58.51
60874;BME280;46715;40.642;-7.920;2023-08-01T08:35:52;96596.75;;;27.23;54.95
60874;BME280;46715;40.642;-7.920;2023-08-01T08:37:52;96584.38;;;27.97;52.49
60874;BME280;46715;40.642;-7.920;2023-08-01T08:39:53;96585.09;;;28.61;50.64
60874;BME280;46715;40.642;-7.920;2023-08-01T08:41:53;96580.72;;;29.66;47.90
60874;BME280;46715;40.642;-7.920;2023-08-01T08:43:55;96577.81;;;30.74;45.08
60874;BME280;46715;40.642;-7.920;2023-08-01T08:45:56;96579.41;;;31.35;44.75
60874;BME280;46715;40.642;-7.920;2023-08-01T08:47:58;96569.34;;;31.88;42.88
60874;BME280;46715;40.642;-7.920;2023-08-01T08:50:01;96573.88;;;31.49;43.15
60874;BME280;46715;40.642;-7.920;2023-08-01T08:52:01;96573.78;;;32.05;42.23
60874;BME280;46715;40.642;-7.920;2023-08-01T08:54:04;96568.69;;;32.18;42.14
60874;BME280;46715;40.642;-7.920;2023-08-01T08:56:05;96583.00;;;31.66;43.50
60874;BME280;46715;40.642;-7.920;2023-08-01T08:58:08;96585.00;;;31.55;43.90
60874;BME280;46715;40.642;-7.920;2023-08-01T09:00:09;96572.59;;;32.10;42.80
60874;BME280;46715;40.642;-7.920;2023-08-01T09:02:11;96584.06;;;32.21;42.55
60874;BME280;46715;40.642;-7.920;2023-08-01T09:04:11;96574.72;;;32.29;42.58
60874;BME280;46715;40.642;-7.920;2023-08-01T09:06:15;96572.53;;;32.17;42.60
60874;BME280;46715;40.642;-7.920;2023-08-01T09:08:20;96574.75;;;31.84;43.27
60874;BME280;46715;40.642;-7.920;2023-08-01T09:10:21;96572.81;;;31.36;43.95
60874;BME280;46715;40.642;-7.920;2023-08-01T09:12:21;96583.66;;;30.54;45.79
60874;BME280;46715;40.642;-7.920;2023-08-01T09:14:22;96586.31;;;30.65;45.63
60874;BME280;46715;40.642;-7.920;2023-08-01T09:16:23;96572.69;;;30.94;45.29
60874;BME280;46715;40.642;-7.920;2023-08-01T09:18:23;96575.78;;;31.98;43.62
60874;BME280;46715;40.642;-7.920;2023-08-01T09:20:24;96577.56;;;33.11;40.80
60874;BME280;46715;40.642;-7.920;2023-08-01T09:22:24;96562.97;;;33.56;40.40
60874;BME280;46715;40.642;-7.920;2023-08-01T09:24:25;96568.50;;;33.96;38.81
60874;BME280;46715;40.642;-7.920;2023-08-01T09:26:25;96562.16;;;33.59;40.32
60874;BME280;46715;40.642;-7.920;2023-08-01T09:28:26;96568.69;;;33.86;39.38
60874;BME280;46715;40.642;-7.920;2023-08-01T09:30:27;96562.94;;;33.36;40.26
60874;BME280;46715;40.642;-7.920;2023-08-01T09:32:28;96561.34;;;34.06;38.69
60874;BME280;46715;40.642;-7.920;2023-08-01T09:34:29;96556.06;;;34.43;39.16
60874;BME280;46715;40.642;-7.920;2023-08-01T09:36:29;96562.97;;;34.64;38.22
60874;BME280;46715;40.642;-7.920;2023-08-01T09:38:33;96560.00;;;34.58;38.84
60874;BME280;46715;40.642;-7.920;2023-08-01T09:40:40;96557.41;;;34.51;38.75
60874;BME280;46715;40.642;-7.920;2023-08-01T09:42:41;96550.91;;;34.48;39.07
60874;BME280;46715;40.642;-7.920;2023-08-01T09:44:44;96563.50;;;34.15;39.93
60874;BME280;46715;40.642;-7.920;2023-08-01T09:46:54;96558.06;;;32.00;44.23
60874;BME280;46715;40.642;-7.920;2023-08-01T09:48:55;96562.25;;;32.01;45.02
60874;BME280;46715;40.642;-7.920;2023-08-01T09:51:13;96556.41;;;32.10;44.80
60874;BME280;46715;40.642;-7.920;2023-08-01T09:53:14;96565.44;;;31.92;44.87
60874;BME280;46715;40.642;-7.920;2023-08-01T09:55:15;96563.44;;;31.02;47.72
60874;BME280;46715;40.642;-7.920;2023-08-01T09:57:15;96565.19;;;30.56;49.16
60874;BME280;46715;40.642;-7.920;2023-08-01T09:59:18;96570.16;;;30.65;49.07
60874;BME280;46715;40.642;-7.920;2023-08-01T10:01:20;96566.13;;;31.02;48.41
60874;BME280;46715;40.642;-7.920;2023-08-01T10:03:20;96562.56;;;31.20;48.15
60874;BME280;46715;40.642;-7.920;2023-08-01T10:05:21;96566.22;;;32.31;45.58
60874;BME280;46715;40.642;-7.920;2023-08-01T10:07:23;96568.00;;;32.41;44.95
60874;BME280;46715;40.642;-7.920;2023-08-01T10:09:24;96569.00;;;32.24;45.01
60874;BME280;46715;40.642;-7.920;2023-08-01T10:11:25;96567.59;;;32.08;45.18
60874;BME280;46715;40.642;-7.920;2023-08-01T10:13:28;96563.34;;;32.11;45.51
60874;BME280;46715;40.642;-7.920;2023-08-01T10:15:29;96568.03;;;31.61;46.47
60874;BME280;46715;40.642;-7.920;2023-08-01T10:17:29;96566.13;;;30.99;47.88
60874;BME280;46715;40.642;-7.920;2023-08-01T10:19:31;96572.47;;;30.63;49.37
60874;BME280;46715;40.642;-7.920;2023-08-01T10:21:33;96565.81;;;30.89;48.98
60874;BME280;46715;40.642;-7.920;2023-08-01T10:23:35;96576.31;;;30.66;49.46
60874;BME280;46715;40.642;-7.920;2023-08-01T10:25:35;96573.13;;;30.82;49.28